sensor_id;sensor_type;location;lat;lon;timestamp;temperature;humidity
23815;DHT22;12088;53.078;8.720;2023-02-28T00:00:30;3.90;99.90
23815;DHT22;12088;53.078;8.720;2023-02-28T00:02:58;3.60;99.90
23815;DHT22;12088;53.078;8.720;2023-02-28T00:05:25;3.50;99.90
23815;DHT22;12088;53.078;8.720;2023-02-28T00:07:51;3.50;99.90
23815;DHT22;12088;53.078;8.720;2023-02-28T00:10:19;3.60;99.90
23815;DHT22;12088;53.078;8.720;2023-02-28T00:12:47;3.70;99.90
23815;DHT22;12088;53.078;8.720;2023-02-28T00:15:12;3.70;99.90
23815;DHT22;12088;53.078;8.720;2023-02-28T00:17:38;3.80;99.90
23815;DHT22;12088;53.078;8.720;2023-02-28T00:20:05;3.80;99.90
23815;DHT22;12088;53.078;8.720;2023-02-28T00:22:36;3.80;99.90
23815;DHT22;12088;53.078;8.720;2023-02-28T00:25:05;3.70;99.90
23815;DHT22;12088;53.078;8.720;2023-02-28T00:27:32;3.90;99.90
23815;DHT22;12088;53.078;8.720;2023-02-28T00:29:58;3.70;99.90
23815;DHT22;12088;53.078;8.720;2023-02-28T00:32:23;3.80;99.90
23815;DHT22;12088;53.078;8.720;2023-02-28T00:34:49;3.80;99.90
23815;DHT22;12088;53.078;8.720;2023-02-28T00:37:14;3.80;99.90
23815;DHT22;12088;53.078;8.720;2023-02-28T00:39:40;3.70;99.90
23815;DHT22;12088;53.078;8.720;2023-02-28T00:42:07;3.70;99.90
23815;DHT22;12088;53.078;8.720;2023-02-28T00:44:33;3.90;99.90
23815;DHT22;12088;53.078;8.720;2023-02-28T00:46:59;3.90;99.90
23815;DHT22;12088;53.078;8.720;2023-02-28T00:49:26;3.80;99.90
23815;DHT22;12088;53.078;8.720;2023-02-28T00:51:52;3.70;99.90
23815;DHT22;12088;53.078;8.720;2023-02-28T00:54:18;3.70;99.90
23815;DHT22;12088;53.078;8.720;2023-02-28T00:56:43;3.70;99.90
23815;DHT22;12088;53.078;8.720;2023-02-28T00:59:11;3.70;99.90
23815;DHT22;12088;53.078;8.720;2023-02-28T01:01:37;3.70;99.90
23815;DHT22;12088;53.078;8.720;2023-02-28T01:04:03;3.60;99.90
23815;DHT22;12088;53.078;8.720;2023-02-28T01:06:28;3.60;99.90
23815;DHT22;12088;53.078;8.720;2023-02-28T01:08:54;3.70;99.90
23815;DHT22;12088;53.078;8.720;2023-02-28T01:11:19;3.70;99.90
23815;DHT22;12088;53.078;8.720;2023-02-28T01:13:46;3.70;99.90
23815;DHT22;12088;53.078;8.720;2023-02-28T01:16:12;3.80;99.90
23815;DHT22;12088;53.078;8.720;2023-02-28T01:18:38;3.80;99.90
23815;DHT22;12088;53.078;8.720;2023-02-28T01:21:05;3.80;99.90
23815;DHT22;12088;53.078;8.720;2023-02-28T01:23:31;3.80;99.90
23815;DHT22;12088;53.078;8.720;2023-02-28T01:25:56;3.90;99.90
23815;DHT22;12088;53.078;8.720;2023-02-28T01:28:22;3.70;99.90
23815;DHT22;12088;53.078;8.720;2023-02-28T01:30:49;3.60;99.90
23815;DHT22;12088;53.078;8.720;2023-02-28T01:33:14;3.50;99.90
23815;DHT22;12088;53.078;8.720;2023-02-28T01:35:40;3.50;99.90
23815;DHT22;12088;53.078;8.720;2023-02-28T01:38:05;3.50;99.90
23815;DHT22;12088;53.078;8.720;2023-02-28T01:40:31;3.50;99.90
23815;DHT22;12088;53.078;8.720;2023-02-28T01:42:56;3.50;99.90
23815;DHT22;12088;53.078;8.720;2023-02-28T01:45:26;3.60;99.90
23815;DHT22;12088;53.078;8.720;2023-02-28T01:47:57;3.60;99.90
23815;DHT22;12088;53.078;8.720;2023-02-28T01:50:27;3.40;99.90
23815;DHT22;12088;53.078;8.720;2023-02-28T01:52:56;3.30;99.90
23815;DHT22;12088;53.078;8.720;2023-02-28T01:55:23;3.20;99.90
23815;DHT22;12088;53.078;8.720;2023-02-28T01:57:52;3.20;99.90
23815;DHT22;12088;53.078;8.720;2023-02-28T02:00:23;3.20;99.90
23815;DHT22;12088;53.078;8.720;2023-02-28T02:02:51;3.20;99.90
23815;DHT22;12088;53.078;8.720;2023-02-28T02:05:20;3.30;99.90
23815;DHT22;12088;53.078;8.720;2023-02-28T02:07:48;3.20;99.90
23815;DHT22;12088;53.078;8.720;2023-02-28T02:10:20;3.20;99.90
23815;DHT22;12088;53.078;8.720;2023-02-28T02:17:58;3.30;99.90
23815;DHT22;12088;53.078;8.720;2023-02-28T02:20:32;3.40;99.90
23815;DHT22;12088;53.078;8.720;2023-02-28T02:25:39;3.30;99.90
23815;DHT22;12088;53.078;8.720;2023-02-28T02:35:59;3.30;99.90
23815;DHT22;12088;53.078;8.720;2023-02-28T02:38:33;3.40;99.90
23815;DHT22;12088;53.078;8.720;2023-02-28T02:43:45;3.40;99.90
23815;DHT22;12088;53.078;8.720;2023-02-28T02:46:20;3.40;99.90
23815;DHT22;12088;53.078;8.720;2023-02-28T02:48:48;3.30;99.90
23815;DHT22;12088;53.078;8.720;2023-02-28T02:51:16;3.30;99.90
23815;DHT22;12088;53.078;8.720;2023-02-28T02:53:52;3.30;99.90
23815;DHT22;12088;53.078;8.720;2023-02-28T02:56:24;3.30;99.90
23815;DHT22;12088;53.078;8.720;2023-02-28T02:58:54;3.50;99.90
23815;DHT22;12088;53.078;8.720;2023-02-28T03:01:23;3.40;99.90
23815;DHT22;12088;53.078;8.720;2023-02-28T03:03:59;3.30;99.90
23815;DHT22;12088;53.078;8.720;2023-02-28T03:06:26;3.30;99.90
23815;DHT22;12088;53.078;8.720;2023-02-28T03:08:52;3.30;99.90
23815;DHT22;12088;53.078;8.720;2023-02-28T03:11:19;3.40;99.90
23815;DHT22;12088;53.078;8.720;2023-02-28T03:21:41;3.30;99.90
23815;DHT22;12088;53.078;8.720;2023-02-28T03:24:15;3.20;99.90
23815;DHT22;12088;53.078;8.720;2023-02-28T03:26:47;3.20;99.90
23815;DHT22;12088;53.078;8.720;2023-02-28T03:29:22;3.30;99.90
23815;DHT22;12088;53.078;8.720;2023-02-28T03:31:54;3.20;99.90
23815;DHT22;12088;53.078;8.720;2023-02-28T03:34:25;3.10;99.90
23815;DHT22;12088;53.078;8.720;2023-02-28T03:36:54;3.20;99.90
23815;DHT22;12088;53.078;8.720;2023-02-28T03:39:24;3.20;99.90
23815;DHT22;12088;53.078;8.720;2023-02-28T03:42:02;3.00;99.90
23815;DHT22;12088;53.078;8.720;2023-02-28T03:44:39;2.90;99.90
23815;DHT22;12088;53.078;8.720;2023-02-28T03:47:11;2.90;99.90
23815;DHT22;12088;53.078;8.720;2023-02-28T03:50:03;3.00;99.90
23815;DHT22;12088;53.078;8.720;2023-02-28T03:52:34;2.90;99.90
23815;DHT22;12088;53.078;8.720;2023-02-28T03:55:03;2.90;99.90
23815;DHT22;12088;53.078;8.720;2023-02-28T03:57:43;2.80;99.90
23815;DHT22;12088;53.078;8.720;2023-02-28T04:00:18;3.00;99.90
23815;DHT22;12088;53.078;8.720;2023-02-28T04:02:45;2.90;99.90
23815;DHT22;12088;53.078;8.720;2023-02-28T04:05:10;2.80;99.90
23815;DHT22;12088;53.078;8.720;2023-02-28T04:07:36;2.70;99.90
23815;DHT22;12088;53.078;8.720;2023-02-28T04:10:03;2.80;99.90
23815;DHT22;12088;53.078;8.720;2023-02-28T04:12:29;2.60;99.90
23815;DHT22;12088;53.078;8.720;2023-02-28T04:14:54;2.60;99.90
23815;DHT22;12088;53.078;8.720;2023-02-28T04:17:20;2.50;99.90
23815;DHT22;12088;53.078;8.720;2023-02-28T04:19:45;2.40;99.90
23815;DHT22;12088;53.078;8.720;2023-02-28T04:22:11;2.40;99.90
23815;DHT22;12088;53.078;8.720;2023-02-28T04:24:36;2.50;99.90
23815;DHT22;12088;53.078;8.720;2023-02-28T04:27:02;2.60;99.90
23815;DHT22;12088;53.078;8.720;2023-02-28T04:29:31;2.60;99.90
23815;DHT22;12088;53.078;8.720;2023-02-28T04:31:58;2.50;99.90
23815;DHT22;12088;53.078;8.720;2023-02-28T04:34:25;2.50;99.90
23815;DHT22;12088;53.078;8.720;2023-02-28T04:36:51;2.30;99.90
23815;DHT22;12088;53.078;8.720;2023-02-28T04:39:18;2.30;99.90
23815;DHT22;12088;53.078;8.720;2023-02-28T04:41:45;2.30;99.90
23815;DHT22;12088;53.078;8.720;2023-02-28T04:44:11;2.30;99.90
23815;DHT22;12088;53.078;8.720;2023-02-28T04:46:36;2.30;99.90
23815;DHT22;12088;53.078;8.720;2023-02-28T04:49:02;2.40;99.90
23815;DHT22;12088;53.078;8.720;2023-02-28T04:51:28;2.40;99.90
23815;DHT22;12088;53.078;8.720;2023-02-28T04:53:53;2.50;99.90
23815;DHT22;12088;53.078;8.720;2023-02-28T04:56:19;2.50;99.90
23815;DHT22;12088;53.078;8.720;2023-02-28T04:58:45;2.40;99.90
23815;DHT22;12088;53.078;8.720;2023-02-28T05:01:26;2.40;99.90
23815;DHT22;12088;53.078;8.720;2023-02-28T05:03:54;2.30;99.90
23815;DHT22;12088;53.078;8.720;2023-02-28T05:06:21;2.20;99.90
23815;DHT22;12088;53.078;8.720;2023-02-28T05:08:46;2.10;99.90
23815;DHT22;12088;53.078;8.720;2023-02-28T05:11:16;2.20;99.90
23815;DHT22;12088;53.078;8.720;2023-02-28T05:13:43;2.20;99.90
23815;DHT22;12088;53.078;8.720;2023-02-28T05:16:08;2.20;99.90
23815;DHT22;12088;53.078;8.720;2023-02-28T05:18:34;2.20;99.90
23815;DHT22;12088;53.078;8.720;2023-02-28T05:21:00;2.20;99.90
23815;DHT22;12088;53.078;8.720;2023-02-28T05:23:27;2.10;99.90
23815;DHT22;12088;53.078;8.720;2023-02-28T05:25:53;2.00;99.90
23815;DHT22;12088;53.078;8.720;2023-02-28T05:28:19;2.00;99.90
23815;DHT22;12088;53.078;8.720;2023-02-28T05:30:45;2.10;99.90
23815;DHT22;12088;53.078;8.720;2023-02-28T05:33:11;2.10;99.90
23815;DHT22;12088;53.078;8.720;2023-02-28T05:35:39;2.00;99.90
23815;DHT22;12088;53.078;8.720;2023-02-28T05:38:04;1.90;99.90
23815;DHT22;12088;53.078;8.720;2023-02-28T05:40:30;1.90;99.90
23815;DHT22;12088;53.078;8.720;2023-02-28T05:42:55;1.80;99.90
23815;DHT22;12088;53.078;8.720;2023-02-28T05:45:21;1.50;99.90
23815;DHT22;12088;53.078;8.720;2023-02-28T05:47:46;1.30;99.90
23815;DHT22;12088;53.078;8.720;2023-02-28T05:50:12;1.20;99.90
23815;DHT22;12088;53.078;8.720;2023-02-28T05:52:37;1.20;99.90
23815;DHT22;12088;53.078;8.720;2023-02-28T05:55:04;1.10;99.90
23815;DHT22;12088;53.078;8.720;2023-02-28T05:57:29;1.00;99.90
23815;DHT22;12088;53.078;8.720;2023-02-28T05:59:55;1.00;99.90
23815;DHT22;12088;53.078;8.720;2023-02-28T06:02:20;1.00;99.90
23815;DHT22;12088;53.078;8.720;2023-02-28T06:04:46;1.00;99.90
23815;DHT22;12088;53.078;8.720;2023-02-28T06:07:11;1.00;99.90
23815;DHT22;12088;53.078;8.720;2023-02-28T06:09:37;0.90;99.90
23815;DHT22;12088;53.078;8.720;2023-02-28T06:12:04;1.00;99.90
23815;DHT22;12088;53.078;8.720;2023-02-28T06:14:35;1.00;99.90
23815;DHT22;12088;53.078;8.720;2023-02-28T06:17:01;0.90;99.90
23815;DHT22;12088;53.078;8.720;2023-02-28T06:19:26;0.90;99.90
23815;DHT22;12088;53.078;8.720;2023-02-28T06:21:53;0.90;99.90
23815;DHT22;12088;53.078;8.720;2023-02-28T06:24:20;0.80;99.90
23815;DHT22;12088;53.078;8.720;2023-02-28T06:26:45;0.80;99.90
23815;DHT22;12088;53.078;8.720;2023-02-28T06:29:11;0.80;99.90
23815;DHT22;12088;53.078;8.720;2023-02-28T06:31:37;0.70;99.90
23815;DHT22;12088;53.078;8.720;2023-02-28T06:34:04;0.70;99.90
23815;DHT22;12088;53.078;8.720;2023-02-28T06:36:30;0.60;99.90
23815;DHT22;12088;53.078;8.720;2023-02-28T06:38:56;0.60;99.90
23815;DHT22;12088;53.078;8.720;2023-02-28T06:41:24;0.60;99.90
23815;DHT22;12088;53.078;8.720;2023-02-28T06:43:50;0.50;99.90
23815;DHT22;12088;53.078;8.720;2023-02-28T06:46:16;0.60;99.90
23815;DHT22;12088;53.078;8.720;2023-02-28T06:48:43;0.60;99.90
23815;DHT22;12088;53.078;8.720;2023-02-28T06:51:12;0.70;99.90
23815;DHT22;12088;53.078;8.720;2023-02-28T06:53:39;0.70;99.90
23815;DHT22;12088;53.078;8.720;2023-02-28T06:56:09;0.60;99.90
23815;DHT22;12088;53.078;8.720;2023-02-28T06:58:35;0.70;99.90
23815;DHT22;12088;53.078;8.720;2023-02-28T07:01:01;0.80;99.90
23815;DHT22;12088;53.078;8.720;2023-02-28T07:03:27;0.80;99.90
23815;DHT22;12088;53.078;8.720;2023-02-28T07:05:52;0.80;99.90
23815;DHT22;12088;53.078;8.720;2023-02-28T07:08:18;0.80;99.90
23815;DHT22;12088;53.078;8.720;2023-02-28T07:10:43;0.80;99.90
23815;DHT22;12088;53.078;8.720;2023-02-28T07:13:10;0.90;99.90
23815;DHT22;12088;53.078;8.720;2023-02-28T07:15:36;1.00;99.90
23815;DHT22;12088;53.078;8.720;2023-02-28T07:18:02;1.00;99.90
23815;DHT22;12088;53.078;8.720;2023-02-28T07:20:28;1.00;99.90
23815;DHT22;12088;53.078;8.720;2023-02-28T07:22:54;1.10;99.90
23815;DHT22;12088;53.078;8.720;2023-02-28T07:25:24;1.10;99.90
23815;DHT22;12088;53.078;8.720;2023-02-28T07:27:50;1.20;99.90
23815;DHT22;12088;53.078;8.720;2023-02-28T07:30:16;1.30;99.90
23815;DHT22;12088;53.078;8.720;2023-02-28T07:32:42;1.40;99.90
23815;DHT22;12088;53.078;8.720;2023-02-28T07:35:08;1.50;99.90
23815;DHT22;12088;53.078;8.720;2023-02-28T07:37:33;1.50;99.90
23815;DHT22;12088;53.078;8.720;2023-02-28T07:40:03;1.60;99.90
23815;DHT22;12088;53.078;8.720;2023-02-28T07:42:31;1.80;99.90
23815;DHT22;12088;53.078;8.720;2023-02-28T07:44:57;1.80;99.90
23815;DHT22;12088;53.078;8.720;2023-02-28T07:47:24;1.90;99.90
23815;DHT22;12088;53.078;8.720;2023-02-28T07:49:50;2.00;99.90
23815;DHT22;12088;53.078;8.720;2023-02-28T07:52:15;2.20;99.90
23815;DHT22;12088;53.078;8.720;2023-02-28T07:54:41;2.20;99.90
23815;DHT22;12088;53.078;8.720;2023-02-28T07:57:06;2.30;99.90
23815;DHT22;12088;53.078;8.720;2023-02-28T07:59:32;2.30;99.90
23815;DHT22;12088;53.078;8.720;2023-02-28T08:01:58;2.30;99.90
23815;DHT22;12088;53.078;8.720;2023-02-28T08:04:24;2.50;99.90
23815;DHT22;12088;53.078;8.720;2023-02-28T08:06:49;2.70;99.90
23815;DHT22;12088;53.078;8.720;2023-02-28T08:09:17;2.80;99.90
23815;DHT22;12088;53.078;8.720;2023-02-28T08:11:42;3.00;99.90
23815;DHT22;12088;53.078;8.720;2023-02-28T08:14:08;3.30;99.90
23815;DHT22;12088;53.078;8.720;2023-02-28T08:16:33;3.50;99.90
23815;DHT22;12088;53.078;8.720;2023-02-28T08:18:59;4.00;99.90
23815;DHT22;12088;53.078;8.720;2023-02-28T08:21:24;4.30;99.90
23815;DHT22;12088;53.078;8.720;2023-02-28T08:23:50;4.80;99.90
23815;DHT22;12088;53.078;8.720;2023-02-28T08:26:17;5.20;99.90
23815;DHT22;12088;53.078;8.720;2023-02-28T08:28:43;5.60;99.90
23815;DHT22;12088;53.078;8.720;2023-02-28T08:31:11;5.60;99.90
23815;DHT22;12088;53.078;8.720;2023-02-28T08:33:38;5.80;99.90
23815;DHT22;12088;53.078;8.720;2023-02-28T08:36:05;5.90;99.90
23815;DHT22;12088;53.078;8.720;2023-02-28T08:38:30;6.10;99.90
23815;DHT22;12088;53.078;8.720;2023-02-28T08:41:02;6.50;99.90
23815;DHT22;12088;53.078;8.720;2023-02-28T08:43:28;7.10;99.90
23815;DHT22;12088;53.078;8.720;2023-02-28T08:45:54;7.30;99.90
23815;DHT22;12088;53.078;8.720;2023-02-28T08:48:25;7.40;99.90
23815;DHT22;12088;53.078;8.720;2023-02-28T08:51:11;7.00;99.90
23815;DHT22;12088;53.078;8.720;2023-02-28T08:53:38;7.30;99.90
23815;DHT22;12088;53.078;8.720;2023-02-28T08:56:08;7.50;99.90
23815;DHT22;12088;53.078;8.720;2023-02-28T08:58:35;8.00;99.90
23815;DHT22;12088;53.078;8.720;2023-02-28T09:01:11;8.70;99.90
23815;DHT22;12088;53.078;8.720;2023-02-28T09:03:37;9.10;99.90
23815;DHT22;12088;53.078;8.720;2023-02-28T09:06:03;9.30;99.90
23815;DHT22;12088;53.078;8.720;2023-02-28T09:08:30;9.90;99.90
23815;DHT22;12088;53.078;8.720;2023-02-28T09:10:56;10.50;99.90
23815;DHT22;12088;53.078;8.720;2023-02-28T09:13:23;12.10;99.90
23815;DHT22;12088;53.078;8.720;2023-02-28T09:15:49;12.00;99.90
23815;DHT22;12088;53.078;8.720;2023-02-28T09:18:15;11.50;99.90
23815;DHT22;12088;53.078;8.720;2023-02-28T09:20:41;12.10;99.90
23815;DHT22;12088;53.078;8.720;2023-02-28T09:23:08;12.10;99.90
23815;DHT22;12088;53.078;8.720;2023-02-28T09:25:34;13.10;99.90
23815;DHT22;12088;53.078;8.720;2023-02-28T09:27:59;14.50;99.90
23815;DHT22;12088;53.078;8.720;2023-02-28T09:30:25;15.10;99.90
23815;DHT22;12088;53.078;8.720;2023-02-28T09:32:50;15.60;99.90
23815;DHT22;12088;53.078;8.720;2023-02-28T09:35:18;16.50;99.90
23815;DHT22;12088;53.078;8.720;2023-02-28T09:37:44;16.50;99.90
23815;DHT22;12088;53.078;8.720;2023-02-28T09:40:10;16.70;99.90
23815;DHT22;12088;53.078;8.720;2023-02-28T09:42:37;17.00;99.90
23815;DHT22;12088;53.078;8.720;2023-02-28T09:45:11;16.60;99.90
23815;DHT22;12088;53.078;8.720;2023-02-28T09:47:41;17.00;99.90
23815;DHT22;12088;53.078;8.720;2023-02-28T09:52:53;17.00;98.80
23815;DHT22;12088;53.078;8.720;2023-02-28T09:55:25;16.80;99.50
23815;DHT22;12088;53.078;8.720;2023-02-28T09:57:54;17.10;95.40
23815;DHT22;12088;53.078;8.720;2023-02-28T10:00:27;17.60;97.50
23815;DHT22;12088;53.078;8.720;2023-02-28T10:03:28;16.90;94.10
23815;DHT22;12088;53.078;8.720;2023-02-28T10:06:11;15.40;98.40
23815;DHT22;12088;53.078;8.720;2023-02-28T10:11:40;16.90;93.70
23815;DHT22;12088;53.078;8.720;2023-02-28T10:16:44;17.20;94.50
23815;DHT22;12088;53.078;8.720;2023-02-28T10:19:19;17.00;94.30
23815;DHT22;12088;53.078;8.720;2023-02-28T10:22:12;16.80;93.30
23815;DHT22;12088;53.078;8.720;2023-02-28T10:24:44;17.50;92.00
23815;DHT22;12088;53.078;8.720;2023-02-28T10:29:43;18.50;92.50
23815;DHT22;12088;53.078;8.720;2023-02-28T10:37:04;14.50;95.20
23815;DHT22;12088;53.078;8.720;2023-02-28T10:42:04;16.70;94.00
23815;DHT22;12088;53.078;8.720;2023-02-28T10:44:30;16.10;94.40
23815;DHT22;12088;53.078;8.720;2023-02-28T10:46:56;15.40;94.30
23815;DHT22;12088;53.078;8.720;2023-02-28T10:49:28;17.20;93.40
23815;DHT22;12088;53.078;8.720;2023-02-28T10:51:59;16.60;94.80
23815;DHT22;12088;53.078;8.720;2023-02-28T10:54:35;19.00;92.30
23815;DHT22;12088;53.078;8.720;2023-02-28T10:57:19;18.20;91.40
23815;DHT22;12088;53.078;8.720;2023-02-28T10:59:45;16.90;88.00
23815;DHT22;12088;53.078;8.720;2023-02-28T11:04:55;18.60;90.40
23815;DHT22;12088;53.078;8.720;2023-02-28T11:07:22;19.20;90.20
23815;DHT22;12088;53.078;8.720;2023-02-28T11:09:50;16.80;86.70
23815;DHT22;12088;53.078;8.720;2023-02-28T11:14:50;18.50;87.20
23815;DHT22;12088;53.078;8.720;2023-02-28T11:19:48;17.70;87.90
23815;DHT22;12088;53.078;8.720;2023-02-28T11:22:20;17.40;93.50
23815;DHT22;12088;53.078;8.720;2023-02-28T11:27:45;17.40;91.00
23815;DHT22;12088;53.078;8.720;2023-02-28T11:32:55;17.40;89.40
23815;DHT22;12088;53.078;8.720;2023-02-28T11:35:39;16.70;90.00
23815;DHT22;12088;53.078;8.720;2023-02-28T11:43:37;21.40;84.10
23815;DHT22;12088;53.078;8.720;2023-02-28T23:23:16;-0.50;99.90
23815;DHT22;12088;53.078;8.720;2023-02-28T23:25:41;-0.80;99.90
23815;DHT22;12088;53.078;8.720;2023-02-28T23:28:08;-1.00;99.90
23815;DHT22;12088;53.078;8.720;2023-02-28T23:30:35;-1.10;99.90
23815;DHT22;12088;53.078;8.720;2023-02-28T23:33:02;-1.20;99.90
23815;DHT22;12088;53.078;8.720;2023-02-28T23:35:27;-1.20;99.90
23815;DHT22;12088;53.078;8.720;2023-02-28T23:37:55;-1.10;99.90
23815;DHT22;12088;53.078;8.720;2023-02-28T23:40:22;-1.10;99.90
23815;DHT22;12088;53.078;8.720;2023-02-28T23:42:47;-1.20;99.90
23815;DHT22;12088;53.078;8.720;2023-02-28T23:45:13;-1.20;99.90
23815;DHT22;12088;53.078;8.720;2023-02-28T23:47:41;-1.20;99.90
23815;DHT22;12088;53.078;8.720;2023-02-28T23:50:07;-1.20;99.90
23815;DHT22;12088;53.078;8.720;2023-02-28T23:52:32;-1.20;99.90
23815;DHT22;12088;53.078;8.720;2023-02-28T23:54:58;-1.30;99.90
23815;DHT22;12088;53.078;8.720;2023-02-28T23:57:25;-1.20;99.90
23815;DHT22;12088;53.078;8.720;2023-02-28T23:59:51;-1.20;99.90
